createdAt,value
2023-10-18T00:00:44.430Z,100582.30
2023-10-18T00:01:47.211Z,100577.32
2023-10-18T00:02:53.159Z,100581.44
2023-10-18T00:03:58.119Z,100576.91
2023-10-18T00:05:01.768Z,100576.85
2023-10-18T00:06:13.765Z,100575.61
2023-10-18T00:07:17.864Z,100580.97
2023-10-18T00:08:24.283Z,100573.77
2023-10-18T00:09:45.806Z,100567.86
2023-10-18T00:10:51.053Z,100574.90
2023-10-18T00:11:54.622Z,100571.70
2023-10-18T00:12:58.248Z,100567.05
2023-10-18T00:14:01.400Z,100571.67
2023-10-18T00:15:06.839Z,100565.09
2023-10-18T00:16:10.085Z,100562.40
2023-10-18T00:17:14.849Z,100560.39
2023-10-18T00:18:17.156Z,100558.85
2023-10-18T00:19:20.407Z,100554.70
2023-10-18T00:20:26.289Z,100561.98
2023-10-18T00:21:29.586Z,100556.22
2023-10-18T00:22:32.949Z,100561.54
2023-10-18T00:23:36.613Z,100565.63
2023-10-18T00:24:41.800Z,100564.89
2023-10-18T00:26:55.246Z,100563.54
2023-10-18T00:27:59.641Z,100565.58
2023-10-18T00:29:04.084Z,100562.95
2023-10-18T00:30:09.223Z,100555.42
2023-10-18T00:31:14.843Z,100557.40
2023-10-18T00:32:19.855Z,100553.05
2023-10-18T00:33:27.953Z,100555.42
2023-10-18T00:34:30.665Z,100562.73
2023-10-18T00:35:36.387Z,100556.73
2023-10-18T00:36:39.711Z,100549.58
2023-10-18T00:37:53.180Z,100553.33
2023-10-18T00:38:56.770Z,100551.55
2023-10-18T00:40:02.101Z,100561.34
2023-10-18T00:41:07.234Z,100554.56
2023-10-18T00:42:28.658Z,100554.67
2023-10-18T00:43:32.213Z,100559.40
2023-10-18T00:44:36.044Z,100553.59
2023-10-18T00:45:41.762Z,100549.81
2023-10-18T00:46:48.558Z,100547.70
2023-10-18T00:47:51.711Z,100546.55
2023-10-18T00:48:57.365Z,100548.83
2023-10-18T00:50:01.020Z,100551.47
2023-10-18T00:51:05.387Z,100546.44
2023-10-18T00:52:10.563Z,100550.78
2023-10-18T00:53:15.574Z,100553.65
2023-10-18T00:54:20.751Z,100543.61
2023-10-18T00:55:28.478Z,100541.14
2023-10-18T00:56:32.073Z,100545.75
2023-10-18T00:57:48.794Z,100537.62
2023-10-18T00:58:41.789Z,100549.18
2023-10-18T00:59:45.019Z,100548.38
2023-10-18T01:00:49.472Z,100541.66
2023-10-18T01:01:56.782Z,100536.89
2023-10-18T01:03:00.893Z,100542.47
2023-10-18T01:04:05.624Z,100541.28
2023-10-18T01:05:10.466Z,100545.86
2023-10-18T01:06:16.585Z,100544.23
2023-10-18T01:07:22.142Z,100547.90
2023-10-18T01:08:26.272Z,100547.64
2023-10-18T01:09:29.933Z,100545.63
2023-10-18T01:10:35.116Z,100549.50
2023-10-18T01:11:38.877Z,100544.18
2023-10-18T01:12:42.156Z,100544.72
2023-10-18T01:13:46.623Z,100548.03
2023-10-18T01:14:52.856Z,100552.80
2023-10-18T01:15:56.124Z,100549.78
2023-10-18T01:16:59.542Z,100557.33
2023-10-18T01:18:02.706Z,100557.27
2023-10-18T01:19:09.361Z,100549.37
2023-10-18T01:20:17.576Z,100550.09
2023-10-18T01:21:21.821Z,100548.20
2023-10-18T01:22:25.773Z,100551.52
2023-10-18T01:23:29.475Z,100544.66
2023-10-18T01:24:35.351Z,100550.72
2023-10-18T01:25:38.641Z,100549.75
2023-10-18T01:26:42.005Z,100549.78
2023-10-18T01:27:46.241Z,100550.05
2023-10-18T01:28:50.184Z,100554.62
2023-10-18T01:29:53.388Z,100556.64
2023-10-18T01:30:56.560Z,100551.22
2023-10-18T01:32:00.015Z,100546.95
2023-10-18T01:33:03.450Z,100555.75
2023-10-18T01:34:07.613Z,100547.27
2023-10-18T01:35:12.817Z,100552.47
2023-10-18T01:36:16.225Z,100545.16
2023-10-18T01:37:20.502Z,100546.18
2023-10-18T01:38:26.116Z,100540.22
2023-10-18T01:39:34.102Z,100550.94
2023-10-18T01:40:38.365Z,100537.54
2023-10-18T01:41:42.933Z,100546.07
2023-10-18T01:42:46.139Z,100534.80
2023-10-18T01:43:49.458Z,100535.61
2023-10-18T01:44:53.904Z,100538.18
2023-10-18T01:45:59.133Z,100532.81
2023-10-18T01:47:12.053Z,100536.91
2023-10-18T01:48:17.639Z,100532.72
2023-10-18T01:49:22.906Z,100530.95
2023-10-18T01:50:26.046Z,100527.30
2023-10-18T01:51:32.692Z,100531.81
2023-10-18T01:52:40.588Z,100529.18
2023-10-18T01:53:45.203Z,100528.57
2023-10-18T01:54:47.610Z,100524.92
2023-10-18T01:55:55.324Z,100530.95
2023-10-18T01:57:02.419Z,100530.84
2023-10-18T01:58:07.095Z,100534.27
2023-10-18T01:59:12.785Z,100530.78
2023-10-18T02:00:23.624Z,100529.65
2023-10-18T02:01:27.060Z,100537.14
2023-10-18T02:02:33.444Z,100527.71
2023-10-18T02:03:38.274Z,100525.83
2023-10-18T02:04:52.169Z,100528.50
2023-10-18T02:05:49.179Z,100526.73
2023-10-18T02:06:52.846Z,100541.49
2023-10-18T02:07:57.157Z,100535.43
2023-10-18T02:09:00.385Z,100534.17
2023-10-18T02:10:04.688Z,100535.64
2023-10-18T02:11:09.965Z,100539.69
2023-10-18T02:12:14.995Z,100533.86
2023-10-18T02:13:20.553Z,100540.84
2023-10-18T02:14:23.844Z,100540.68
2023-10-18T02:15:27.877Z,100536.39
2023-10-18T02:16:32.844Z,100536.28
2023-10-18T02:17:36.405Z,100538.62
2023-10-18T02:18:41.290Z,100529.47
2023-10-18T02:19:44.171Z,100542.95
2023-10-18T02:20:54.309Z,100538.95
2023-10-18T02:21:57.717Z,100535.17
2023-10-18T02:23:03.842Z,100538.66
2023-10-18T02:24:11.436Z,100539.52
2023-10-18T02:25:18.931Z,100537.69
2023-10-18T02:26:32.939Z,100540.94
2023-10-18T02:27:38.139Z,100535.97
2023-10-18T02:28:41.912Z,100532.80
2023-10-18T02:29:45.089Z,100533.70
2023-10-18T02:30:49.558Z,100532.94
2023-10-18T02:31:53.470Z,100536.28
2023-10-18T02:33:00.432Z,100533.17
2023-10-18T02:34:18.776Z,100533.98
2023-10-18T02:35:12.848Z,100534.80
2023-10-18T02:36:18.083Z,100533.23
2023-10-18T02:37:21.247Z,100536.17
2023-10-18T02:38:25.755Z,100534.61
2023-10-18T02:39:35.027Z,100525.30
2023-10-18T02:40:39.852Z,100531.41
2023-10-18T02:41:43.448Z,100531.83
2023-10-18T02:42:46.880Z,100534.41
2023-10-18T02:43:52.688Z,100533.50
2023-10-18T02:44:58.999Z,100527.06
2023-10-18T02:46:06.421Z,100528.02
2023-10-18T02:47:12.626Z,100519.13
2023-10-18T02:48:18.983Z,100527.92
2023-10-18T02:49:28.178Z,100532.17
2023-10-18T02:50:33.909Z,100524.55
2023-10-18T02:51:38.510Z,100520.88
2023-10-18T02:52:44.724Z,100522.59
2023-10-18T02:53:52.210Z,100525.81
2023-10-18T02:54:57.317Z,100522.08
2023-10-18T02:56:00.543Z,100516.98
2023-10-18T02:57:04.785Z,100521.98
2023-10-18T02:58:08.777Z,100518.95
2023-10-18T02:59:13.057Z,100521.32
2023-10-18T03:00:18.858Z,100523.24
2023-10-18T03:01:23.462Z,100522.97
2023-10-18T03:02:28.668Z,100514.31
2023-10-18T03:03:38.227Z,100511.55
2023-10-18T03:04:43.708Z,100523.15
2023-10-18T03:05:47.000Z,100511.83
2023-10-18T03:06:53.436Z,100518.05
2023-10-18T03:07:57.988Z,100518.05
2023-10-18T03:09:02.674Z,100510.59
2023-10-18T03:10:14.315Z,100513.22
2023-10-18T03:11:21.158Z,100510.11
2023-10-18T03:12:27.981Z,100508.83
2023-10-18T03:13:32.499Z,100506.48
2023-10-18T03:14:41.637Z,100507.34
2023-10-18T03:16:03.776Z,100497.41
2023-10-18T03:17:27.631Z,100498.42
2023-10-18T03:18:31.054Z,100499.28
2023-10-18T03:19:34.812Z,100492.86
2023-10-18T03:20:40.080Z,100492.62
2023-10-18T03:21:44.452Z,100491.77
2023-10-18T03:22:48.633Z,100496.06
2023-10-18T03:23:51.762Z,100490.19
2023-10-18T03:24:58.051Z,100496.87
2023-10-18T03:26:02.929Z,100487.61
2023-10-18T03:27:13.930Z,100486.80
2023-10-18T03:28:16.520Z,100486.52
2023-10-18T03:29:20.386Z,100480.70
2023-10-18T03:30:24.386Z,100485.55
2023-10-18T03:31:32.807Z,100487.26
2023-10-18T03:32:36.996Z,100488.22
2023-10-18T03:33:40.358Z,100489.03
2023-10-18T03:34:43.737Z,100493.80
2023-10-18T03:35:51.855Z,100479.48
2023-10-18T03:36:54.477Z,100487.31
2023-10-18T03:37:59.851Z,100487.31
2023-10-18T03:39:05.943Z,100484.44
2023-10-18T03:40:11.747Z,100493.48
2023-10-18T03:41:17.660Z,100493.94
2023-10-18T03:42:33.364Z,100485.41
2023-10-18T03:43:37.270Z,100494.50
2023-10-18T03:44:45.173Z,100491.87
2023-10-18T03:46:03.418Z,100494.70
2023-10-18T03:47:15.740Z,100488.42
2023-10-18T03:48:25.701Z,100489.81
2023-10-18T03:49:33.795Z,100500.14
2023-10-18T03:50:40.893Z,100499.84
2023-10-18T03:51:47.179Z,100497.58
2023-10-18T03:52:52.142Z,100492.52
2023-10-18T03:53:56.105Z,100495.10
2023-10-18T03:55:00.294Z,100502.83
2023-10-18T03:56:05.541Z,100495.15
2023-10-18T03:57:08.883Z,100498.53
2023-10-18T03:58:13.190Z,100496.82
2023-10-18T03:59:23.447Z,100496.66
2023-10-18T04:00:27.603Z,100497.73
2023-10-18T04:01:47.267Z,100495.96
2023-10-18T04:02:50.824Z,100495.96
2023-10-18T04:03:54.441Z,100497.88
2023-10-18T04:05:01.005Z,100494.34
2023-10-18T04:06:09.948Z,100502.23
2023-10-18T04:07:22.390Z,100498.73
2023-10-18T04:08:25.817Z,100498.73
2023-10-18T04:09:28.965Z,100493.80
2023-10-18T04:10:34.660Z,100497.23
2023-10-18T04:11:39.354Z,100497.13
2023-10-18T04:12:44.666Z,100496.97
2023-10-18T04:13:49.485Z,100503.08
2023-10-18T04:15:01.112Z,100496.21
2023-10-18T04:16:16.308Z,100501.52
2023-10-18T04:17:26.032Z,100504.20
2023-10-18T04:18:32.316Z,100496.16
2023-10-18T04:19:35.908Z,100504.55
2023-10-18T04:20:41.937Z,100503.89
2023-10-18T04:21:47.123Z,100493.33
2023-10-18T04:22:52.585Z,100498.02
2023-10-18T04:23:58.181Z,100503.47
2023-10-18T04:25:07.787Z,100497.46
2023-10-18T04:26:13.117Z,100498.12
2023-10-18T04:27:16.486Z,100496.30
2023-10-18T04:28:20.109Z,100494.78
2023-10-18T04:29:27.367Z,100500.32
2023-10-18T04:30:33.434Z,100500.14
2023-10-18T04:31:36.642Z,100503.80
2023-10-18T04:32:40.127Z,100506.20
2023-10-18T04:33:44.635Z,100493.88
2023-10-18T04:34:49.339Z,100499.73
2023-10-18T04:35:58.563Z,100502.13
2023-10-18T04:37:02.518Z,100502.28
2023-10-18T04:38:07.978Z,100508.34
2023-10-18T04:39:14.592Z,100508.14
2023-10-18T04:40:24.003Z,100507.73
2023-10-18T04:41:31.332Z,100503.39
2023-10-18T04:42:35.036Z,100496.91
2023-10-18T04:43:37.954Z,100504.30
2023-10-18T04:44:41.519Z,100507.28
2023-10-18T04:45:46.963Z,100504.75
2023-10-18T04:46:52.169Z,100501.81
2023-10-18T04:48:02.353Z,100506.61
2023-10-18T04:49:15.129Z,100503.32
2023-10-18T04:50:24.240Z,100499.91
2023-10-18T04:51:33.521Z,100509.45
2023-10-18T04:52:43.019Z,100500.40
2023-10-18T04:53:47.095Z,100499.48
2023-10-18T04:55:06.474Z,100500.50
2023-10-18T04:56:10.369Z,100501.41
2023-10-18T04:57:13.352Z,100498.62
2023-10-18T04:58:17.782Z,100503.82
2023-10-18T04:59:23.101Z,100495.72
2023-10-18T05:00:26.853Z,100499.27
2023-10-18T05:01:37.528Z,100498.79
2023-10-18T05:02:41.128Z,100495.73
2023-10-18T05:03:45.273Z,100494.92
2023-10-18T05:04:48.727Z,100501.30
2023-10-18T05:05:54.164Z,100497.21
2023-10-18T05:07:19.612Z,100502.83
2023-10-18T05:08:22.994Z,100498.06
2023-10-18T05:09:45.445Z,100500.77
2023-10-18T05:10:50.523Z,100507.39
2023-10-18T05:11:57.085Z,100506.38
2023-10-18T05:13:08.318Z,100513.92
2023-10-18T05:14:17.208Z,100508.59
2023-10-18T05:15:24.246Z,100505.84
2023-10-18T05:16:29.925Z,100503.50
2023-10-18T05:17:37.757Z,100500.50
2023-10-18T05:18:40.843Z,100502.80
2023-10-18T05:19:44.072Z,100498.25
2023-10-18T05:20:57.227Z,100502.06
2023-10-18T05:22:01.479Z,100500.82
2023-10-18T05:23:09.775Z,100501.12
2023-10-18T05:24:15.790Z,100502.53
2023-10-18T05:25:24.806Z,100507.39
2023-10-18T05:26:32.835Z,100502.30
2023-10-18T05:27:38.193Z,100513.02
2023-10-18T05:28:59.113Z,100516.45
2023-10-18T05:30:05.568Z,100513.24
2023-10-18T05:31:28.345Z,100511.69
2023-10-18T05:32:50.313Z,100514.38
2023-10-18T05:33:56.204Z,100519.09
2023-10-18T05:35:12.480Z,100521.08
2023-10-18T05:36:08.717Z,100523.14
2023-10-18T05:37:16.057Z,100521.30
2023-10-18T05:38:21.456Z,100525.92
2023-10-18T05:39:29.698Z,100525.13
2023-10-18T05:40:40.225Z,100526.11
2023-10-18T05:41:50.383Z,100521.49
2023-10-18T05:42:56.026Z,100525.43
2023-10-18T05:44:03.071Z,100521.72
2023-10-18T05:45:06.708Z,100515.90
2023-10-18T05:46:10.961Z,100518.34
2023-10-18T05:47:18.088Z,100523.62
2023-10-18T05:48:24.185Z,100523.78
2023-10-18T05:49:32.321Z,100516.67
2023-10-18T05:50:38.540Z,100515.23
2023-10-18T05:51:54.251Z,100516.67
2023-10-18T05:52:59.337Z,100515.90
2023-10-18T05:54:02.569Z,100517.72
2023-10-18T05:55:13.781Z,100513.94
2023-10-18T05:56:16.703Z,100514.00
2023-10-18T05:57:20.986Z,100513.80
2023-10-18T05:58:27.668Z,100508.27
2023-10-18T05:59:33.704Z,100515.33
2023-10-18T06:00:39.177Z,100513.48
2023-10-18T06:01:44.895Z,100516.19
2023-10-18T06:02:48.873Z,100519.08
2023-10-18T06:03:53.124Z,100517.81
2023-10-18T06:04:57.204Z,100517.08
2023-10-18T06:06:02.460Z,100513.17
2023-10-18T06:07:13.201Z,100512.03
2023-10-18T06:08:16.809Z,100518.58
2023-10-18T06:09:31.175Z,100507.23
2023-10-18T06:10:36.774Z,100510.03
2023-10-18T06:11:39.423Z,100510.97
2023-10-18T06:12:44.931Z,100506.99
2023-10-18T06:13:48.279Z,100518.80
2023-10-18T06:14:56.080Z,100518.07
2023-10-18T06:16:03.778Z,100511.31
2023-10-18T06:17:17.855Z,100522.94
2023-10-18T06:18:35.749Z,100509.37
2023-10-18T06:19:39.948Z,100507.22
2023-10-18T06:20:45.212Z,100510.22
2023-10-18T06:21:50.450Z,100514.34
2023-10-18T06:22:54.850Z,100511.02
2023-10-18T06:24:05.080Z,100507.91
2023-10-18T06:25:13.324Z,100509.89
2023-10-18T06:26:37.412Z,100518.73
2023-10-18T06:27:40.962Z,100519.78
2023-10-18T06:28:45.305Z,100512.91
2023-10-18T06:29:50.937Z,100519.16
2023-10-18T06:30:57.035Z,100524.28
2023-10-18T06:32:00.477Z,100522.50
2023-10-18T06:33:06.678Z,100520.64
2023-10-18T06:34:11.149Z,100523.26
2023-10-18T06:35:21.185Z,100512.48
2023-10-18T06:36:27.456Z,100517.06
2023-10-18T06:37:47.251Z,100514.49
2023-10-18T06:38:53.004Z,100510.22
2023-10-18T06:39:58.259Z,100513.86
2023-10-18T06:41:06.713Z,100514.27
2023-10-18T06:42:08.138Z,100517.21
2023-10-18T06:43:15.176Z,100511.30
2023-10-18T06:44:20.453Z,100508.84
2023-10-18T06:45:25.584Z,100509.57
2023-10-18T06:46:28.693Z,100510.79
2023-10-18T06:47:33.128Z,100511.09
2023-10-18T06:48:37.786Z,100517.52
2023-10-18T06:49:45.615Z,100512.19
2023-10-18T06:50:49.770Z,100516.83
2023-10-18T06:51:53.103Z,100516.83
2023-10-18T06:52:56.715Z,100519.97
2023-10-18T06:54:00.672Z,100522.96
2023-10-18T06:55:04.496Z,100519.91
2023-10-18T06:56:11.654Z,100516.66
2023-10-18T06:57:17.732Z,100516.30
2023-10-18T06:58:22.337Z,100512.80
2023-10-18T06:59:31.142Z,100512.58
2023-10-18T07:00:41.561Z,100512.00
2023-10-18T07:02:01.675Z,100523.78
2023-10-18T07:03:05.879Z,100516.85
2023-10-18T07:04:21.867Z,100511.30
2023-10-18T07:05:29.857Z,100512.77
2023-10-18T07:06:36.054Z,100510.97
2023-10-18T07:07:39.035Z,100509.39
2023-10-18T07:08:47.585Z,100515.19
2023-10-18T07:09:52.162Z,100518.16
2023-10-18T07:11:07.681Z,100510.72
2023-10-18T07:12:05.317Z,100509.05
2023-10-18T07:13:13.331Z,100519.47
2023-10-18T07:14:19.383Z,100508.74
2023-10-18T07:15:24.479Z,100516.00
2023-10-18T07:16:32.063Z,100524.53
2023-10-18T07:17:35.103Z,100529.08
2023-10-18T07:18:38.396Z,100547.85
2023-10-18T07:19:51.223Z,100546.05
2023-10-18T07:20:54.357Z,100553.14
2023-10-18T07:22:03.340Z,100552.68
2023-10-18T07:23:06.952Z,100553.48
2023-10-18T07:24:14.267Z,100545.30
2023-10-18T07:25:24.422Z,100540.28
2023-10-18T07:26:27.820Z,100546.41
2023-10-18T07:27:32.973Z,100547.20
2023-10-18T07:28:57.269Z,100550.73
2023-10-18T07:30:02.607Z,100544.12
2023-10-18T07:31:12.555Z,100543.06
2023-10-18T07:32:17.731Z,100539.63
2023-10-18T07:33:23.331Z,100540.67
2023-10-18T07:34:34.637Z,100537.07
2023-10-18T07:35:40.039Z,100538.67
2023-10-18T07:36:46.139Z,100537.26
2023-10-18T07:37:53.456Z,100533.98
2023-10-18T07:39:00.080Z,100530.89
2023-10-18T07:40:05.443Z,100524.53
2023-10-18T07:41:09.245Z,100533.69
2023-10-18T07:42:14.066Z,100542.83
2023-10-18T07:43:17.667Z,100536.88
2023-10-18T07:44:21.236Z,100539.86
2023-10-18T07:45:25.096Z,100545.13
2023-10-18T07:46:30.501Z,100545.98
2023-10-18T07:47:39.167Z,100553.56
2023-10-18T07:48:45.055Z,100561.53
2023-10-18T07:49:48.329Z,100569.02
2023-10-18T07:50:52.088Z,100572.95
2023-10-18T07:51:58.319Z,100579.13
2023-10-18T07:53:00.836Z,100573.62
2023-10-18T07:54:06.326Z,100586.72
2023-10-18T07:55:11.221Z,100585.40
2023-10-18T07:56:17.569Z,100587.59
2023-10-18T07:57:23.611Z,100590.38
2023-10-18T07:58:28.312Z,100588.30
2023-10-18T07:59:35.701Z,100599.66
2023-10-18T08:00:39.065Z,100592.14
2023-10-18T08:01:43.534Z,100590.80
2023-10-18T08:02:48.230Z,100590.03
2023-10-18T08:03:56.076Z,100590.29
2023-10-18T08:05:00.304Z,100591.44
2023-10-18T08:06:11.371Z,100592.87
2023-10-18T08:07:20.109Z,100580.22
2023-10-18T08:08:27.650Z,100586.56
2023-10-18T08:09:33.832Z,100591.68
2023-10-18T08:10:37.299Z,100593.44
2023-10-18T08:11:44.000Z,100583.59
2023-10-18T08:12:50.286Z,100582.17
2023-10-18T08:13:56.187Z,100574.34
2023-10-18T08:15:00.143Z,100579.48
2023-10-18T08:16:04.344Z,100586.33
2023-10-18T08:17:10.840Z,100573.13
2023-10-18T08:18:17.141Z,100575.92
2023-10-18T08:19:22.267Z,100580.56
2023-10-18T08:20:26.834Z,100577.70
2023-10-18T08:21:36.634Z,100586.52
2023-10-18T08:22:41.829Z,100572.91
2023-10-18T08:23:44.038Z,100580.75
2023-10-18T08:24:49.451Z,100575.41
2023-10-18T08:25:55.749Z,100571.69
2023-10-18T08:27:01.826Z,100567.93
2023-10-18T08:28:07.813Z,100555.06
2023-10-18T08:29:11.305Z,100557.08
2023-10-18T08:30:15.588Z,100546.77
2023-10-18T08:31:25.068Z,100545.81
2023-10-18T08:32:30.807Z,100546.22
2023-10-18T08:33:35.242Z,100552.66
2023-10-18T08:34:38.478Z,100540.59
2023-10-18T08:35:41.838Z,100547.27
2023-10-18T08:36:50.241Z,100533.29
2023-10-18T08:37:54.453Z,100538.23
2023-10-18T08:38:58.822Z,100535.16
2023-10-18T08:40:03.129Z,100533.52
2023-10-18T08:41:16.702Z,100537.59
2023-10-18T08:42:21.857Z,100535.91
2023-10-18T08:43:31.921Z,100534.63
2023-10-18T08:44:37.306Z,100529.23
2023-10-18T08:45:42.797Z,100528.02
2023-10-18T08:47:05.407Z,100527.27
2023-10-18T08:48:12.502Z,100520.91
2023-10-18T08:49:16.915Z,100524.63
2023-10-18T08:50:20.745Z,100527.41
2023-10-18T08:51:25.630Z,100518.27
2023-10-18T08:52:32.673Z,100511.79
2023-10-18T08:53:37.638Z,100518.53
2023-10-18T08:54:42.103Z,100513.02
2023-10-18T08:55:45.959Z,100510.45
2023-10-18T08:56:49.261Z,100513.65
2023-10-18T08:57:58.068Z,100509.42
2023-10-18T08:59:05.993Z,100506.91
2023-10-18T09:00:26.443Z,100505.80
2023-10-18T09:01:30.684Z,100510.81
2023-10-18T09:02:36.225Z,100506.70
2023-10-18T09:03:39.460Z,100503.30
2023-10-18T09:04:45.073Z,100499.33
2023-10-18T09:05:49.970Z,100503.89
2023-10-18T09:06:53.619Z,100497.17
2023-10-18T09:08:05.640Z,100495.45
2023-10-18T09:09:11.834Z,100486.05
2023-10-18T09:10:15.512Z,100498.03
2023-10-18T09:11:22.406Z,100488.19
2023-10-18T09:12:46.870Z,100488.20
2023-10-18T09:14:10.551Z,100485.66
2023-10-18T09:15:29.582Z,100484.14
2023-10-18T09:16:43.434Z,100473.66
2023-10-18T09:17:46.884Z,100467.56
2023-10-18T09:18:50.463Z,100471.53
2023-10-18T09:19:59.545Z,100473.77
2023-10-18T09:21:09.018Z,100462.34
2023-10-18T09:22:12.517Z,100463.09
2023-10-18T09:23:23.441Z,100462.41
2023-10-18T09:24:30.160Z,100460.93
2023-10-18T09:25:52.090Z,100456.55
2023-10-18T09:26:57.322Z,100451.55
2023-10-18T09:28:02.488Z,100444.81
2023-10-18T09:29:09.489Z,100442.24
2023-10-18T09:30:16.536Z,100440.73
2023-10-18T09:31:23.450Z,100447.48
2023-10-18T09:32:27.931Z,100445.19
2023-10-18T09:33:33.920Z,100447.20
2023-10-18T09:34:44.347Z,100439.61
2023-10-18T09:35:50.861Z,100431.86
2023-10-18T09:36:58.223Z,100428.35
2023-10-18T09:38:09.128Z,100432.86
2023-10-18T09:39:12.360Z,100429.83
2023-10-18T09:40:15.526Z,100434.67
2023-10-18T09:41:19.144Z,100426.76
2023-10-18T09:42:25.429Z,100435.69
2023-10-18T09:43:28.368Z,100441.44
2023-10-18T09:44:31.787Z,100442.48
2023-10-18T09:45:37.636Z,100442.93
2023-10-18T09:46:43.551Z,100440.83
2023-10-18T09:47:48.396Z,100433.41
2023-10-18T09:48:53.805Z,100426.39
2023-10-18T09:50:03.636Z,100426.78
2023-10-18T09:51:12.488Z,100424.69
2023-10-18T09:52:17.479Z,100422.27
2023-10-18T09:53:22.125Z,100428.19
2023-10-18T09:54:26.313Z,100438.51
2023-10-18T09:55:30.509Z,100429.72
2023-10-18T09:56:37.419Z,100422.61
2023-10-18T09:57:42.792Z,100418.70
2023-10-18T09:58:48.684Z,100416.89
2023-10-18T09:59:53.314Z,100412.28
2023-10-18T10:00:59.668Z,100422.83
2023-10-18T10:02:05.136Z,100415.34
2023-10-18T10:03:11.639Z,100420.76
2023-10-18T10:04:20.147Z,100416.86
2023-10-18T10:05:30.697Z,100413.23
2023-10-18T10:06:35.083Z,100418.03
2023-10-18T10:07:46.705Z,100417.61
2023-10-18T10:08:51.325Z,100402.21
2023-10-18T10:09:56.945Z,100399.90
2023-10-18T10:11:03.075Z,100404.30
2023-10-18T10:12:09.643Z,100401.65
2023-10-18T10:13:14.099Z,100404.88
2023-10-18T10:14:19.024Z,100399.61
2023-10-18T10:15:26.015Z,100405.00
2023-10-18T10:16:33.555Z,100400.95
2023-10-18T10:17:37.816Z,100397.86
2023-10-18T10:18:44.484Z,100396.09
2023-10-18T10:19:51.658Z,100395.54
2023-10-18T10:20:55.434Z,100387.91
2023-10-18T10:22:08.695Z,100391.62
2023-10-18T10:23:14.684Z,100388.44
2023-10-18T10:24:31.776Z,100394.56
2023-10-18T10:25:47.341Z,100389.06
2023-10-18T10:26:45.039Z,100389.17
2023-10-18T10:27:59.578Z,100382.00
2023-10-18T10:29:07.568Z,100390.96
2023-10-18T10:30:28.207Z,100377.72
2023-10-18T10:31:57.210Z,100382.00
2023-10-18T10:33:00.760Z,100370.66
2023-10-18T10:34:07.350Z,100376.38
2023-10-18T10:35:18.975Z,100383.39
2023-10-18T10:36:23.854Z,100369.92
2023-10-18T10:37:32.087Z,100368.43
2023-10-18T10:38:35.341Z,100364.55
2023-10-18T10:39:57.260Z,100373.23
2023-10-18T10:41:19.979Z,100376.64
2023-10-18T10:42:44.911Z,100370.43
2023-10-18T10:44:07.281Z,100372.86
2023-10-18T10:45:23.588Z,100369.23
2023-10-18T10:46:32.351Z,100360.87
2023-10-18T10:47:41.012Z,100370.20
2023-10-18T10:48:46.424Z,100359.80
2023-10-18T10:49:52.831Z,100350.05
2023-10-18T10:51:17.025Z,100356.58
2023-10-18T10:52:21.261Z,100349.93
2023-10-18T10:53:35.264Z,100347.49
2023-10-18T10:54:40.325Z,100351.23
2023-10-18T10:55:44.202Z,100348.71
2023-10-18T10:56:50.317Z,100358.17
2023-10-18T10:57:54.128Z,100350.41
2023-10-18T10:59:06.766Z,100349.78
2023-10-18T11:00:13.978Z,100344.55
2023-10-18T11:01:20.186Z,100351.88
2023-10-18T11:02:26.662Z,100343.02
2023-10-18T11:03:34.907Z,100349.31
2023-10-18T11:04:51.145Z,100346.64
2023-10-18T11:05:54.406Z,100339.10
2023-10-18T11:07:03.071Z,100337.62
2023-10-18T11:08:09.829Z,100335.96
2023-10-18T11:09:20.964Z,100340.18
2023-10-18T11:10:24.441Z,100331.42
2023-10-18T11:11:30.334Z,100334.72
2023-10-18T11:12:35.893Z,100331.55
2023-10-18T11:13:42.570Z,100324.06
2023-10-18T11:14:48.210Z,100337.05
2023-10-18T11:15:51.838Z,100323.69
2023-10-18T11:17:02.026Z,100329.05
2023-10-18T11:18:13.455Z,100326.03
2023-10-18T11:19:18.181Z,100321.89
2023-10-18T11:20:28.517Z,100330.40
2023-10-18T11:21:34.814Z,100329.78
2023-10-18T11:22:40.401Z,100321.05
2023-10-18T11:23:45.891Z,100326.27
2023-10-18T11:24:52.824Z,100326.14
2023-10-18T11:26:01.246Z,100330.40
2023-10-18T11:27:05.007Z,100327.58
2023-10-18T11:28:22.431Z,100317.51
2023-10-18T11:29:27.751Z,100322.22
2023-10-18T11:30:30.255Z,100329.53
2023-10-18T11:31:33.916Z,100330.42
2023-10-18T11:32:37.860Z,100330.83
2023-10-18T11:33:51.974Z,100319.53
2023-10-18T11:35:00.251Z,100322.62
2023-10-18T11:36:04.813Z,100322.36
2023-10-18T11:37:11.006Z,100315.70
2023-10-18T11:38:14.234Z,100319.50
2023-10-18T11:39:20.694Z,100316.62
2023-10-18T11:40:26.011Z,100309.50
2023-10-18T11:41:33.531Z,100317.30
2023-10-18T11:42:55.461Z,100312.24
2023-10-18T11:43:58.781Z,100315.14
2023-10-18T11:45:03.246Z,100298.91
2023-10-18T11:46:07.618Z,100307.59
2023-10-18T11:47:13.867Z,100302.86
2023-10-18T11:48:17.148Z,100307.29
2023-10-18T11:49:21.320Z,100306.41
2023-10-18T11:50:27.665Z,100303.90
2023-10-18T11:51:34.081Z,100308.88
2023-10-18T11:52:38.087Z,100290.84
2023-10-18T11:53:41.251Z,100296.19
2023-10-18T11:54:47.346Z,100287.21
2023-10-18T11:56:04.204Z,100292.03
2023-10-18T11:57:07.911Z,100297.27
2023-10-18T11:58:13.690Z,100294.42
2023-10-18T11:59:19.916Z,100292.31
2023-10-18T12:00:28.106Z,100295.70
2023-10-18T12:01:36.376Z,100295.56
2023-10-18T12:02:40.180Z,100287.56
2023-10-18T12:03:45.829Z,100296.98
2023-10-18T12:04:50.055Z,100282.24
2023-10-18T12:05:57.049Z,100292.20
2023-10-18T12:07:00.354Z,100287.63
2023-10-18T12:08:05.103Z,100292.50
2023-10-18T12:09:17.278Z,100288.06
2023-10-18T12:10:23.408Z,100273.72
2023-10-18T12:11:26.684Z,100278.35
2023-10-18T12:12:29.244Z,100280.91
2023-10-18T12:13:32.592Z,100269.61
2023-10-18T12:14:37.704Z,100272.05
2023-10-18T12:15:39.976Z,100270.58
2023-10-18T12:16:43.208Z,100274.22
2023-10-18T12:17:48.055Z,100273.02
2023-10-18T12:18:54.121Z,100272.52
2023-10-18T12:19:57.429Z,100267.19
2023-10-18T12:21:05.805Z,100270.59
2023-10-18T12:22:11.048Z,100270.35
2023-10-18T12:23:17.305Z,100271.94
2023-10-18T12:24:23.500Z,100280.52
2023-10-18T12:25:28.648Z,100269.86
2023-10-18T12:26:35.190Z,100258.72
2023-10-18T12:27:39.713Z,100265.95
2023-10-18T12:28:46.446Z,100262.66
2023-10-18T12:29:51.480Z,100256.77
2023-10-18T12:30:56.571Z,100254.70
2023-10-18T12:32:02.237Z,100254.12
2023-10-18T12:33:10.839Z,100256.48
2023-10-18T12:34:17.410Z,100256.28
2023-10-18T12:35:22.115Z,100252.53
2023-10-18T12:36:38.097Z,100243.69
2023-10-18T12:37:44.183Z,100245.41
2023-10-18T12:38:47.380Z,100240.63
2023-10-18T12:39:51.844Z,100243.31
2023-10-18T12:40:59.861Z,100241.13
2023-10-18T12:42:06.295Z,100244.86